Time;durP1;ratioP1;P1;durP2;ratioP2;P2;SDS_P1;SDS_P2;PMS_P1;PMS_P2;Temp;Humidity;BMP_temperature;BMP_pressure;BME280_temperature;BME280_humidity;BME280_pressure;Samples;Min_cycle;Max_cycle;Signal;HPM_P1;HPM_P2
2023/10/03 11:13:58;;;;;;;10.93;6.40;;;25.10;46.70;;;;;;2086140;28;20575;-70
2023/10/03 11:14:59;;;;;;;8.97;6.10;;;24.30;47.60;;;;;;2081613;28;20785;-70
2023/10/03 11:16:00;;;;;;;11.30;6.73;;;23.90;48.40;;;;;;2093533;28;20219;-70
2023/10/03 11:17:01;;;;;;;10.30;6.60;;;23.60;49.60;;;;;;2092757;28;20684;-70
2023/10/03 11:18:04;;;;;;;15.53;6.63;;;23.20;51.00;;;;;;2077067;28;20181;-71
2023/10/03 11:19:06;;;;;;;11.47;6.13;;;23.10;52.30;;;;;;2085481;28;20185;-70
2023/10/03 11:20:08;;;;;;;10.23;6.23;;;23.00;52.80;;;;;;2085846;28;21017;-70
2023/10/03 11:21:10;;;;;;;11.97;6.60;;;23.10;52.70;;;;;;2092216;28;20436;-70
2023/10/03 11:22:13;;;;;;;13.53;6.60;;;23.10;53.40;;;;;;2093764;28;20430;-70
2023/10/03 11:23:18;;;;;;;10.23;6.33;;;22.90;53.10;;;;;;2077668;28;20457;-70
2023/10/03 11:24:22;;;;;;;11.33;6.53;;;22.50;55.20;;;;;;2078517;28;20418;-69
2023/10/03 11:25:25;;;;;;;11.80;6.27;;;22.50;56.00;;;;;;2078611;28;20474;-69
2023/10/03 11:26:25;;;;;;;7.90;6.43;;;22.70;55.70;;;;;;2076984;28;20474;-70
2023/10/03 11:27:31;;;;;;;9.30;6.43;;;22.80;55.70;;;;;;2077423;28;20952;-68
2023/10/03 11:28:48;;;;;;;9.70;6.77;;;22.90;56.20;;;;;;2084384;28;20307;-69
2023/10/03 11:29:49;;;;;;;10.13;6.80;;;22.70;56.00;;;;;;2072158;28;21077;-69
2023/10/03 11:31:06;;;;;;;8.60;6.47;;;22.50;57.10;;;;;;2084415;28;20468;-68
2023/10/03 11:32:19;;;;;;;11.67;6.50;;;22.20;58.50;;;;;;2084948;28;20697;-70
2023/10/03 11:33:20;;;;;;;10.93;6.07;;;22.00;60.10;;;;;;2085127;28;20454;-69
2023/10/03 11:34:38;;;;;;;10.10;6.73;;;21.90;60.30;;;;;;2084390;28;20488;-70
2023/10/03 11:35:41;;;;;;;11.40;6.60;;;22.00;60.10;;;;;;2074518;28;20236;-69
2023/10/03 11:36:46;;;;;;;7.97;6.03;;;21.90;60.60;;;;;;2070795;28;20463;-69
2023/10/03 11:37:49;;;;;;;8.83;6.63;;;21.90;61.10;;;;;;2077939;28;20466;-69
2023/10/03 11:38:54;;;;;;;8.37;6.07;;;22.30;60.10;;;;;;2077161;28;20473;-69
2023/10/03 11:40:11;;;;;;;8.67;6.43;;;22.80;57.90;;;;;;2070057;28;20627;-69
2023/10/03 11:41:12;;;;;;;7.60;6.00;;;23.50;55.10;;;;;;2082311;28;20974;-70
2023/10/03 11:42:25;;;;;;;7.87;6.20;;;23.90;52.80;;;;;;2085853;28;20189;-69
2023/10/03 11:43:26;;;;;;;7.47;5.97;;;24.00;51.90;;;;;;2085578;28;20251;-69
2023/10/03 11:44:27;;;;;;;7.93;5.90;;;24.30;51.70;;;;;;2069183;28;20225;-69
2023/10/03 11:45:29;;;;;;;6.57;5.90;;;24.90;50.40;;;;;;2076244;28;20224;-69
2023/10/03 11:46:43;;;;;;;8.07;5.90;;;25.20;48.00;;;;;;2069309;28;20236;-69
2023/10/03 11:48:10;;;;;;;8.47;6.50;;;24.70;48.60;;;;;;2079296;28;20748;-69
2023/10/03 11:49:11;;;;;;;7.93;5.50;;;24.50;49.30;;;;;;2078829;28;20289;-69
2023/10/03 11:50:12;;;;;;;8.97;5.77;;;24.60;49.10;;;;;;2085348;28;20181;-69
2023/10/03 11:51:13;;;;;;;7.90;6.17;;;24.30;50.10;;;;;;2084624;28;20196;-69
2023/10/03 11:52:14;;;;;;;7.67;6.10;;;24.10;50.40;;;;;;2084718;28;20185;-70
2023/10/03 11:53:15;;;;;;;8.67;6.00;;;24.30;49.30;;;;;;2084846;28;20291;-68
2023/10/03 11:54:16;;;;;;;11.10;6.40;;;24.60;49.00;;;;;;2077074;28;20204;-71
2023/10/03 11:55:17;;;;;;;8.63;5.70;;;24.70;47.90;;;;;;2084153;28;20185;-70
2023/10/03 11:56:17;;;;;;;7.63;5.83;;;24.90;47.80;;;;;;2085774;28;20180;-69
2023/10/03 11:57:19;;;;;;;8.33;5.57;;;24.80;48.40;;;;;;2063822;28;20683;-67
2023/10/03 11:58:20;;;;;;;7.93;5.60;;;25.40;47.20;;;;;;2073161;28;20190;-69
2023/10/03 11:59:20;;;;;;;8.17;5.97;;;25.90;45.50;;;;;;2086387;28;20243;-69
2023/10/03 12:00:24;;;;;;;10.80;5.67;;;25.70;45.10;;;;;;2065804;28;20291;-68
2023/10/03 12:01:25;;;;;;;12.57;6.33;;;25.60;45.20;;;;;;2070454;28;20225;-69
2023/10/03 12:02:26;;;;;;;9.47;6.03;;;25.30;46.00;;;;;;2083245;28;20256;-68
2023/10/03 12:03:28;;;;;;;6.57;5.17;;;25.20;46.00;;;;;;2084661;28;20614;-67
2023/10/03 12:04:30;;;;;;;8.37;5.53;;;25.00;46.50;;;;;;2073640;28;20721;-68
2023/10/03 12:05:31;;;;;;;9.20;6.40;;;24.70;47.50;;;;;;2083658;28;20701;-67
2023/10/03 12:06:32;;;;;;;9.37;5.63;;;24.90;47.20;;;;;;2085187;28;20255;-68
2023/10/03 12:07:33;;;;;;;7.87;5.60;;;24.80;47.00;;;;;;2084553;28;20335;-69
2023/10/03 12:08:36;;;;;;;8.30;6.07;;;24.70;47.30;;;;;;2076866;28;20229;-69
2023/10/03 12:09:37;;;;;;;8.60;5.90;;;25.00;47.60;;;;;;2076099;28;20225;-68
2023/10/03 12:10:41;;;;;;;7.10;5.87;;;25.40;46.60;;;;;;2083256;28;20718;-68
2023/10/03 12:11:41;;;;;;;8.30;5.83;;;25.70;45.00;;;;;;2082397;28;20232;-69
2023/10/03 12:12:42;;;;;;;7.00;5.97;;;25.70;45.40;;;;;;2084593;28;20260;-68
2023/10/03 12:13:43;;;;;;;6.93;5.87;;;25.80;44.70;;;;;;2086353;28;20611;-69
2023/10/03 12:14:45;;;;;;;9.40;6.03;;;26.00;44.50;;;;;;2085011;28;20255;-68
2023/10/03 12:15:47;;;;;;;10.83;6.50;;;25.70;44.70;;;;;;2086013;28;20236;-68
2023/10/03 12:16:51;;;;;;;6.87;5.30;;;25.80;44.90;;;;;;2084598;28;20228;-68
2023/10/03 12:17:52;;;;;;;10.27;6.33;;;26.00;44.70;;;;;;2083036;28;20212;-67
2023/10/03 12:18:53;;;;;;;7.97;5.80;;;25.60;45.10;;;;;;2076668;28;20225;-69
2023/10/03 12:19:54;;;;;;;7.80;5.47;;;25.70;45.20;;;;;;2077069;28;20220;-68
2023/10/03 12:20:55;;;;;;;8.17;5.70;;;26.10;44.90;;;;;;2083858;28;20224;-69
2023/10/03 12:21:56;;;;;;;10.18;5.40;;;26.50;43.80;;;;;;2084982;28;20224;-68
2023/10/03 12:22:58;;;;;;;9.38;5.70;;;27.10;42.60;;;;;;2085382;28;20256;-68
2023/10/03 12:24:00;;;;;;;7.60;5.73;;;27.30;41.60;;;;;;2076535;28;20674;-68
2023/10/03 12:25:01;;;;;;;8.23;5.60;;;26.90;41.80;;;;;;2072629;28;20228;-70
2023/10/03 12:26:02;;;;;;;8.93;5.33;;;26.40;42.40;;;;;;2071192;28;20182;-69
2023/10/03 12:27:05;;;;;;;7.17;5.47;;;25.80;44.30;;;;;;2062856;28;20614;-69
2023/10/03 12:28:07;;;;;;;7.67;5.63;;;25.50;45.50;;;;;;2060412;28;20225;-70
2023/10/03 12:29:10;;;;;;;7.37;6.20;;;25.90;45.30;;;;;;2074197;28;20176;-70
2023/10/03 12:30:15;;;;;;;8.67;5.93;;;26.40;43.40;;;;;;2079618;28;20272;-67
2023/10/03 12:31:17;;;;;;;8.17;5.67;;;27.10;42.60;;;;;;2073126;28;20189;-67
2023/10/03 12:32:17;;;;;;;8.33;5.90;;;27.20;42.00;;;;;;2079396;28;20176;-68
2023/10/03 12:33:19;;;;;;;7.93;6.27;;;27.20;41.40;;;;;;2069705;28;20213;-69
2023/10/03 12:34:21;;;;;;;6.93;6.10;;;26.80;42.50;;;;;;2069542;28;20227;-68
2023/10/03 12:35:22;;;;;;;9.47;5.57;;;26.20;43.50;;;;;;2079030;28;20236;-68
2023/10/03 12:36:23;;;;;;;8.67;5.70;;;25.70;44.90;;;;;;2078617;28;20224;-68
2023/10/03 12:37:24;;;;;;;6.73;5.60;;;25.70;45.30;;;;;;2071383;28;20336;-68
2023/10/03 12:38:25;;;;;;;6.33;5.47;;;25.70;45.10;;;;;;2071071;28;20233;-68
2023/10/03 12:39:30;;;;;;;9.97;6.30;;;25.60;45.60;;;;;;2078045;28;20247;-67
2023/10/03 12:40:31;;;;;;;9.70;5.70;;;24.80;47.00;;;;;;2068419;28;20749;-68
2023/10/03 12:41:32;;;;;;;8.00;5.37;;;24.20;49.70;;;;;;2071746;28;20369;-69
2023/10/03 12:42:33;;;;;;;8.53;5.93;;;24.00;50.80;;;;;;2070409;28;20240;-68
2023/10/03 12:43:34;;;;;;;8.10;6.30;;;24.10;50.40;;;;;;2072954;28;20233;-69
2023/10/03 12:44:35;;;;;;;7.53;5.50;;;24.30;50.00;;;;;;2071184;28;20711;-68
2023/10/03 12:45:36;;;;;;;8.23;5.90;;;24.30;49.80;;;;;;2079773;28;20225;-68
2023/10/03 12:46:37;;;;;;;6.43;5.60;;;24.60;49.50;;;;;;2079135;28;20228;-67
2023/10/03 12:47:39;;;;;;;8.13;5.60;;;24.80;48.80;;;;;;2070185;28;20310;-68
2023/10/03 12:48:41;;;;;;;9.10;5.80;;;24.50;49.20;;;;;;2079013;28;20233;-67
2023/10/03 12:49:41;;;;;;;7.73;6.20;;;24.20;50.10;;;;;;2073252;28;20225;-67
2023/10/03 12:50:43;;;;;;;7.23;5.93;;;23.90;51.10;;;;;;2078488;28;20286;-67
2023/10/03 12:51:44;;;;;;;6.50;5.70;;;23.60;52.80;;;;;;2079570;28;20643;-68
2023/10/03 12:52:47;;;;;;;8.57;5.40;;;23.10;54.20;;;;;;2079583;28;20723;-68
2023/10/03 12:53:52;;;;;;;7.17;6.00;;;22.90;55.20;;;;;;2077259;28;20520;-68
2023/10/03 12:54:53;;;;;;;11.53;6.03;;;22.80;56.10;;;;;;2073674;28;20466;-67
2023/10/03 12:55:57;;;;;;;10.03;5.83;;;22.60;57.40;;;;;;2069422;28;20462;-68
2023/10/03 12:56:59;;;;;;;7.97;5.67;;;22.50;57.70;;;;;;2081857;28;20497;-68
2023/10/03 12:58:02;;;;;;;10.17;5.93;;;22.30;58.40;;;;;;2070467;28;20493;-68
2023/10/03 12:59:02;;;;;;;7.20;6.20;;;22.10;59.40;;;;;;2062873;28;20538;-68
2023/10/03 13:00:06;;;;;;;8.90;6.23;;;21.80;61.40;;;;;;2078486;28;20811;-69
2023/10/03 13:01:07;;;;;;;6.60;5.60;;;21.60;62.90;;;;;;2079416;28;20197;-69
2023/10/03 13:02:07;;;;;;;9.60;5.60;;;21.40;64.30;;;;;;2070992;28;20439;-68
2023/10/03 13:03:08;;;;;;;9.90;6.83;;;21.20;65.50;;;;;;2073571;28;20644;-67
2023/10/03 13:04:09;;;;;;;7.27;6.57;;;21.00;67.40;;;;;;2074681;28;20529;-68
2023/10/03 13:05:12;;;;;;;10.47;6.30;;;20.80;69.00;;;;;;2071593;28;20518;-68
2023/10/03 13:06:14;;;;;;;8.53;6.43;;;20.70;70.50;;;;;;2068728;28;20194;-69
2023/10/03 13:07:16;;;;;;;8.63;6.63;;;20.60;71.30;;;;;;2067006;28;20432;-67
2023/10/03 13:08:17;;;;;;;13.13;6.37;;;20.50;71.60;;;;;;2066139;28;20536;-67
2023/10/03 13:09:18;;;;;;;7.07;6.03;;;20.50;72.80;;;;;;2077114;28;20560;-70
2023/10/03 13:10:20;;;;;;;9.03;6.33;;;20.50;73.40;;;;;;2070244;28;20576;-69
2023/10/03 13:11:21;;;;;;;8.13;5.67;;;20.50;73.80;;;;;;2065013;28;20349;-69
2023/10/03 13:12:23;;;;;;;6.70;6.07;;;20.50;76.50;;;;;;2069983;28;20589;-68
2023/10/03 13:13:23;;;;;;;8.77;6.73;;;20.40;75.10;;;;;;2079600;28;20343;-70
2023/10/03 13:14:24;;;;;;;11.67;6.70;;;20.30;75.90;;;;;;2079381;28;20473;-70
2023/10/03 13:15:25;;;;;;;9.03;5.90;;;20.30;77.10;;;;;;2078647;28;20220;-69
2023/10/03 13:16:25;;;;;;;10.53;6.43;;;20.20;75.90;;;;;;2079023;28;20263;-68
2023/10/03 13:17:27;;;;;;;7.07;6.37;;;20.10;76.80;;;;;;2082907;28;20224;-68
2023/10/03 13:18:27;;;;;;;10.10;6.87;;;20.10;77.10;;;;;;2078741;28;20228;-67
2023/10/03 13:19:29;;;;;;;9.67;7.00;;;20.10;78.30;;;;;;2079276;28;20508;-67
2023/10/03 13:20:30;;;;;;;8.87;6.63;;;20.10;77.70;;;;;;2074319;28;20228;-67
2023/10/03 13:21:32;;;;;;;8.17;6.67;;;20.10;77.30;;;;;;2063121;28;20472;-68
2023/10/03 13:22:32;;;;;;;11.77;6.57;;;20.10;77.30;;;;;;2062667;28;20476;-68
2023/10/03 13:23:33;;;;;;;8.97;6.73;;;20.00;78.20;;;;;;2078514;28;20568;-68
2023/10/03 13:24:34;;;;;;;8.43;6.77;;;20.00;78.20;;;;;;2078420;28;20604;-68
2023/10/03 13:25:37;;;;;;;8.63;6.27;;;20.10;77.30;;;;;;2082288;28;20275;-69
2023/10/03 13:26:39;;;;;;;9.13;6.10;;;20.10;77.20;;;;;;2080102;28;20236;-69
2023/10/03 13:27:40;;;;;;;9.20;6.80;;;20.10;78.20;;;;;;2078148;28;20990;-69
2023/10/03 13:28:41;;;;;;;7.07;6.20;;;20.10;78.60;;;;;;2070521;28;20473;-69
2023/10/03 13:29:43;;;;;;;8.27;6.40;;;20.10;78.80;;;;;;2070825;28;20221;-69
2023/10/03 13:30:45;;;;;;;10.03;6.20;;;20.10;79.80;;;;;;2071087;28;20229;-67
2023/10/03 13:31:46;;;;;;;7.10;6.40;;;20.10;79.40;;;;;;2070999;28;20473;-68
2023/10/03 13:32:51;;;;;;;6.70;6.07;;;20.10;79.50;;;;;;2069876;28;20482;-68
2023/10/03 13:33:52;;;;;;;11.07;7.00;;;20.10;80.10;;;;;;2071892;28;20479;-68
2023/10/03 13:34:53;;;;;;;9.23;6.17;;;20.00;80.70;;;;;;2078806;28;20466;-69
2023/10/03 13:35:54;;;;;;;10.30;7.03;;;20.00;81.10;;;;;;2079105;28;21081;-68
2023/10/03 13:36:55;;;;;;;8.10;6.60;;;19.90;82.30;;;;;;2070067;28;20669;-68
2023/10/03 13:37:57;;;;;;;9.33;6.70;;;19.90;82.60;;;;;;2071053;28;20261;-68
2023/10/03 13:38:58;;;;;;;8.90;6.43;;;19.80;83.80;;;;;;2078677;28;20224;-68
2023/10/03 13:39:58;;;;;;;7.97;6.90;;;19.80;84.70;;;;;;2069597;28;20817;-68
2023/10/03 13:40:59;;;;;;;7.77;6.50;;;19.80;84.60;;;;;;2064723;28;20278;-68
2023/10/03 13:42:01;;;;;;;8.00;7.20;;;19.70;85.10;;;;;;2081846;28;20216;-69
2023/10/03 13:43:03;;;;;;;9.90;6.90;;;19.80;85.70;;;;;;2077682;28;20274;-69
2023/10/03 13:44:04;;;;;;;8.97;6.83;;;19.80;85.40;;;;;;2079114;28;20415;-69
2023/10/03 13:45:06;;;;;;;8.47;7.23;;;19.80;85.30;;;;;;2078292;28;20462;-68
2023/10/03 13:46:07;;;;;;;9.03;6.77;;;19.80;83.70;;;;;;2076053;28;20426;-68
2023/10/03 13:47:08;;;;;;;10.00;6.90;;;19.80;84.30;;;;;;2079255;28;20479;-68
2023/10/03 13:48:08;;;;;;;7.40;6.60;;;19.80;84.70;;;;;;2079200;28;20981;-68
2023/10/03 13:49:11;;;;;;;7.43;6.13;;;19.90;83.60;;;;;;2079303;28;20262;-69
2023/10/03 13:50:13;;;;;;;7.57;6.70;;;19.90;83.20;;;;;;2079575;28;20185;-70
2023/10/03 13:51:14;;;;;;;13.97;6.47;;;19.90;82.30;;;;;;2079180;28;20422;-69
2023/10/03 13:52:18;;;;;;;8.40;6.13;;;20.00;81.60;;;;;;2070692;28;20427;-69
2023/10/03 13:53:20;;;;;;;10.70;6.30;;;19.90;81.10;;;;;;2072751;28;20471;-71
2023/10/03 13:54:21;;;;;;;6.93;6.23;;;19.90;81.90;;;;;;2072908;28;20532;-69
2023/10/03 13:55:25;;;;;;;9.07;6.60;;;19.80;81.40;;;;;;2080595;28;20470;-69
2023/10/03 13:56:26;;;;;;;7.20;5.70;;;19.80;81.40;;;;;;2078443;28;20277;-68
2023/10/03 13:57:29;;;;;;;8.10;6.77;;;19.80;81.30;;;;;;2080350;28;20462;-68
2023/10/03 13:58:30;;;;;;;8.03;5.80;;;19.90;81.30;;;;;;2078733;28;20330;-67
2023/10/03 13:59:36;;;;;;;12.33;6.10;;;20.00;80.40;;;;;;2069842;28;20505;-69
2023/10/03 14:00:39;;;;;;;8.17;5.67;;;20.20;79.10;;;;;;2063274;28;20230;-68
2023/10/03 14:01:40;;;;;;;7.20;5.90;;;20.40;77.50;;;;;;2071038;28;20523;-68
2023/10/03 14:02:45;;;;;;;6.93;5.90;;;20.90;74.30;;;;;;2079357;28;20482;-68
2023/10/03 14:03:47;;;;;;;8.60;5.77;;;21.40;70.90;;;;;;2070904;28;20232;-68
2023/10/03 14:04:50;;;;;;;6.40;5.43;;;22.20;66.30;;;;;;2070880;28;21135;-68
2023/10/03 14:05:51;;;;;;;6.80;5.50;;;22.90;60.60;;;;;;2077624;28;20464;-68
2023/10/03 14:06:54;;;;;;;6.33;5.47;;;23.40;58.10;;;;;;2081172;28;20897;-68
2023/10/03 14:07:55;;;;;;;8.30;5.53;;;23.60;56.00;;;;;;2079765;28;20243;-68
2023/10/03 14:08:56;;;;;;;9.60;5.60;;;23.60;55.80;;;;;;2070713;28;20474;-68
2023/10/03 14:10:01;;;;;;;8.60;6.40;;;23.50;56.30;;;;;;2070230;28;20218;-68
2023/10/03 14:11:01;;;;;;;9.63;5.30;;;23.20;56.30;;;;;;2077648;28;20442;-69
2023/10/03 14:12:05;;;;;;;8.90;5.90;;;22.60;58.40;;;;;;2070635;28;20499;-69
2023/10/03 14:13:06;;;;;;;9.37;5.80;;;22.30;60.70;;;;;;2070555;28;20667;-69
2023/10/03 14:14:06;;;;;;;11.03;5.77;;;22.30;61.60;;;;;;2070248;28;20538;-69
2023/10/03 14:15:11;;;;;;;7.70;5.67;;;22.30;60.30;;;;;;2081228;28;20258;-69
2023/10/03 14:16:12;;;;;;;11.20;7.07;;;22.70;60.00;;;;;;2079297;28;20188;-69
2023/10/03 14:17:12;;;;;;;12.70;7.57;;;23.30;57.00;;;;;;2079391;28;21045;-70
2023/10/03 14:18:13;;;;;;;7.93;6.23;;;24.00;54.20;;;;;;2070005;28;20196;-69
2023/10/03 14:19:15;;;;;;;7.17;5.33;;;24.40;52.90;;;;;;2071497;28;20288;-69
2023/10/03 14:20:16;;;;;;;6.33;5.07;;;24.50;51.10;;;;;;2077295;28;20203;-69
2023/10/03 14:21:20;;;;;;;7.90;5.53;;;24.80;49.90;;;;;;2079052;28;20180;-69
2023/10/03 14:22:20;;;;;;;7.73;5.70;;;25.00;48.90;;;;;;2078136;28;20182;-69
2023/10/03 14:23:21;;;;;;;8.87;5.40;;;24.90;48.60;;;;;;2080753;28;20851;-69
2023/10/03 14:24:22;;;;;;;7.07;5.47;;;24.60;49.50;;;;;;2069658;28;20233;-69
2023/10/03 14:25:23;;;;;;;8.60;5.60;;;24.50;50.20;;;;;;2062080;28;20234;-70
2023/10/03 14:26:24;;;;;;;6.13;5.37;;;24.60;50.60;;;;;;2077620;28;20232;-69
2023/10/03 14:27:25;;;;;;;10.50;5.17;;;24.90;49.70;;;;;;2070558;28;20646;-69
2023/10/03 14:28:26;;;;;;;7.57;5.10;;;24.60;48.80;;;;;;2070291;28;20268;-69
2023/10/03 14:29:26;;;;;;;8.60;4.80;;;23.80;51.70;;;;;;2081447;28;20249;-68
2023/10/03 14:30:28;;;;;;;8.60;4.63;;;23.30;52.80;;;;;;2069955;28;20718;-68
2023/10/03 14:31:29;;;;;;;6.63;4.87;;;23.20;53.20;;;;;;2080605;28;20228;-69
2023/10/03 14:32:30;;;;;;;7.47;5.03;;;23.10;53.70;;;;;;2078623;28;20232;-69
2023/10/03 14:33:31;;;;;;;7.43;5.23;;;22.90;54.70;;;;;;2064112;28;20226;-69
2023/10/03 14:34:32;;;;;;;7.87;4.93;;;22.70;55.70;;;;;;2062252;28;20226;-68
2023/10/03 14:35:33;;;;;;;6.47;4.50;;;22.80;55.90;;;;;;2078193;28;20225;-68
2023/10/03 14:36:34;;;;;;;6.90;5.00;;;22.70;55.70;;;;;;2078362;28;21029;-68
2023/10/03 14:37:35;;;;;;;9.70;4.70;;;22.40;56.80;;;;;;2072881;28;20229;-68
2023/10/03 14:38:36;;;;;;;6.13;4.83;;;22.20;58.60;;;;;;2070538;28;20225;-68
2023/10/03 14:39:38;;;;;;;8.37;5.10;;;22.30;58.00;;;;;;2078848;28;20608;-69
2023/10/03 14:40:39;;;;;;;5.80;4.83;;;22.20;58.10;;;;;;2072364;28;20734;-67
2023/10/03 14:41:41;;;;;;;7.77;5.37;;;22.10;59.00;;;;;;2062876;28;20483;-68
2023/10/03 14:42:43;;;;;;;9.47;4.90;;;21.80;60.20;;;;;;2075958;28;20638;-67
2023/10/03 14:43:44;;;;;;;6.67;4.63;;;21.40;61.80;;;;;;2078809;28;20474;-67
2023/10/03 14:44:45;;;;;;;5.67;4.67;;;21.40;62.80;;;;;;2078513;28;20544;-67
2023/10/03 14:45:46;;;;;;;6.10;4.90;;;21.60;62.40;;;;;;2079551;28;20271;-67
2023/10/03 14:46:47;;;;;;;7.37;4.83;;;22.10;60.40;;;;;;2078408;28;20501;-67
2023/10/03 14:47:48;;;;;;;7.10;4.70;;;22.60;58.00;;;;;;2067963;28;20245;-68
2023/10/03 14:48:49;;;;;;;8.57;4.70;;;23.20;56.10;;;;;;2076357;28;20676;-68
2023/10/03 14:49:50;;;;;;;7.77;4.77;;;23.70;53.10;;;;;;2078238;28;20232;-67
2023/10/03 14:50:57;;;;;;;7.80;4.43;;;24.20;51.40;;;;;;2071885;28;20719;-67
2023/10/03 14:51:57;;;;;;;6.87;4.70;;;23.90;52.70;;;;;;2071200;28;20702;-67
2023/10/03 14:53:00;;;;;;;6.47;4.73;;;24.00;51.60;;;;;;2078258;28;20228;-67
2023/10/03 14:54:02;;;;;;;7.77;4.87;;;24.20;51.00;;;;;;2076935;28;20216;-68
2023/10/03 14:55:04;;;;;;;5.17;4.67;;;24.00;50.40;;;;;;2078794;28;20222;-67
2023/10/03 14:56:05;;;;;;;9.50;4.63;;;23.40;52.40;;;;;;2074733;28;20192;-68
2023/10/03 14:57:05;;;;;;;7.63;4.70;;;23.00;54.00;;;;;;2070063;28;20224;-68
2023/10/03 14:58:08;;;;;;;7.63;4.70;;;22.60;55.60;;;;;;2069676;28;20185;-67
2023/10/03 14:59:08;;;;;;;7.50;5.00;;;22.20;56.90;;;;;;2081291;28;20429;-67
2023/10/03 15:00:10;;;;;;;8.70;4.80;;;21.90;58.30;;;;;;2078754;28;20418;-68
2023/10/03 15:01:12;;;;;;;6.00;4.70;;;21.60;60.50;;;;;;2071779;28;20197;-68
2023/10/03 15:02:14;;;;;;;8.27;4.60;;;21.30;62.00;;;;;;2062451;28;20431;-69
2023/10/03 15:03:15;;;;;;;7.13;5.00;;;21.00;63.80;;;;;;2078578;28;20488;-70
2023/10/03 15:04:17;;;;;;;7.27;5.00;;;20.70;65.40;;;;;;2070319;28;20959;-69
2023/10/03 15:05:18;;;;;;;6.67;4.50;;;20.40;67.50;;;;;;2073353;28;20693;-69
2023/10/03 15:06:19;;;;;;;6.80;4.77;;;20.20;69.80;;;;;;2079049;28;20472;-69
2023/10/03 15:07:20;;;;;;;7.47;4.60;;;20.00;71.10;;;;;;2078751;28;20480;-69
2023/10/03 15:08:20;;;;;;;9.17;4.30;;;20.00;71.70;;;;;;2078359;28;20226;-70
2023/10/03 15:09:22;;;;;;;6.53;4.67;;;19.90;72.60;;;;;;2070812;28;20751;-70
2023/10/03 15:10:23;;;;;;;6.00;4.50;;;19.80;73.10;;;;;;2077587;28;20240;-69
2023/10/03 15:11:24;;;;;;;11.93;4.60;;;19.90;73.60;;;;;;2065235;28;20471;-69
2023/10/03 15:12:25;;;;;;;8.27;4.23;;;19.90;73.30;;;;;;2066846;28;20699;-68
2023/10/03 15:13:26;;;;;;;6.87;4.93;;;20.00;72.60;;;;;;2070229;28;20237;-68
2023/10/03 15:14:29;;;;;;;7.90;4.60;;;20.10;72.10;;;;;;2077586;28;20278;-69
2023/10/03 15:15:30;;;;;;;8.57;4.30;;;20.30;71.30;;;;;;2078449;28;20234;-69
2023/10/03 15:16:32;;;;;;;8.47;4.40;;;20.50;70.40;;;;;;2078600;28;20489;-69
2023/10/03 15:17:37;;;;;;;6.73;4.50;;;20.60;69.80;;;;;;2070688;28;21082;-68
2023/10/03 15:18:37;;;;;;;9.03;4.57;;;20.70;68.80;;;;;;2078156;28;20916;-68
2023/10/03 15:19:38;;;;;;;5.13;4.60;;;20.30;72.80;;;;;;2078666;28;20458;-68
2023/10/03 15:20:39;;;;;;;7.40;5.00;;;19.80;78.90;;;;;;2078478;28;20791;-68
2023/10/03 15:21:40;;;;;;;11.30;5.20;;;19.40;84.40;;;;;;2080579;28;20225;-67
2023/10/03 15:22:41;;;;;;;6.33;4.87;;;19.10;89.10;;;;;;2078982;28;20256;-68
2023/10/03 15:23:44;;;;;;;6.80;5.00;;;19.00;89.80;;;;;;2079220;28;20248;-70
2023/10/03 15:24:45;;;;;;;7.47;4.90;;;18.80;91.40;;;;;;2078347;28;20839;-69
2023/10/03 15:25:46;;;;;;;6.40;4.83;;;18.60;91.60;;;;;;2078990;28;20508;-69
2023/10/03 15:26:46;;;;;;;7.10;4.90;;;18.50;93.00;;;;;;2071128;28;20808;-68
2023/10/03 15:27:48;;;;;;;6.53;4.83;;;18.40;92.50;;;;;;2071821;28;20493;-68
2023/10/03 15:28:49;;;;;;;6.47;4.70;;;18.20;94.20;;;;;;2077747;28;20228;-68
2023/10/03 15:29:50;;;;;;;8.50;5.10;;;18.10;96.00;;;;;;2069825;28;20471;-68
2023/10/03 15:30:52;;;;;;;10.83;5.33;;;17.90;96.90;;;;;;2076606;28;20220;-68
2023/10/03 15:31:53;;;;;;;8.90;5.27;;;17.70;97.80;;;;;;2069523;28;20458;-68
2023/10/03 15:32:57;;;;;;;7.40;4.97;;;17.50;99.10;;;;;;2062104;28;20482;-68
2023/10/03 15:33:58;;;;;;;16.43;5.47;;;17.40;99.90;;;;;;2062476;28;20483;-69
2023/10/03 15:35:01;;;;;;;6.87;5.50;;;17.30;99.90;;;;;;2080061;28;20922;-69
2023/10/03 15:36:01;;;;;;;9.10;5.80;;;17.20;99.90;;;;;;2077111;28;20465;-69
2023/10/03 15:37:11;;;;;;;10.03;6.27;;;17.10;99.90;;;;;;2078430;28;21022;-69
2023/10/03 15:38:12;;;;;;;9.33;5.80;;;17.00;99.90;;;;;;2077503;28;20763;-69
2023/10/03 15:39:14;;;;;;;9.63;6.03;;;16.90;99.90;;;;;;2061623;28;20509;-72
2023/10/03 15:40:16;;;;;;;8.20;5.60;;;16.80;99.90;;;;;;2063338;28;20195;-71
2023/10/03 15:41:17;;;;;;;8.50;6.17;;;16.70;99.90;;;;;;2076565;28;20418;-69
2023/10/03 15:42:20;;;;;;;11.03;6.67;;;16.60;99.90;;;;;;2078088;28;20438;-69
2023/10/03 15:43:20;;;;;;;8.17;6.07;;;16.60;99.90;;;;;;2065087;28;20230;-69
2023/10/03 15:44:22;;;;;;;8.70;6.63;;;16.50;99.90;;;;;;2057885;28;20496;-69
2023/10/03 15:45:22;;;;;;;7.03;5.90;;;16.40;99.90;;;;;;2066490;28;20232;-69
2023/10/03 15:46:23;;;;;;;8.57;5.90;;;16.40;99.90;;;;;;2071264;28;21014;-69
2023/10/03 15:47:28;;;;;;;8.40;6.27;;;16.30;99.90;;;;;;2069510;28;20229;-70
2023/10/03 15:48:29;;;;;;;15.00;7.30;;;16.40;99.90;;;;;;2078001;28;20484;-69
2023/10/03 15:49:30;;;;;;;10.27;5.73;;;16.30;99.90;;;;;;2072521;28;20474;-70
2023/10/03 15:50:38;;;;;;;9.00;6.37;;;16.20;99.90;;;;;;2075957;28;20518;-70
2023/10/03 15:51:40;;;;;;;10.20;6.60;;;16.30;99.90;;;;;;2075018;28;20768;-70
2023/10/03 15:52:43;;;;;;;8.47;5.97;;;16.30;99.90;;;;;;2077451;28;20466;-71
2023/10/03 15:53:45;;;;;;;10.93;6.83;;;16.30;99.90;;;;;;2068136;28;20831;-70
2023/10/03 15:54:46;;;;;;;8.27;5.67;;;16.30;99.90;;;;;;2070551;28;20474;-71
2023/10/03 15:55:47;;;;;;;12.43;6.00;;;16.40;99.90;;;;;;2080188;28;20471;-70
2023/10/03 15:56:47;;;;;;;22.50;6.30;;;16.30;99.90;;;;;;2079125;28;20999;-70
2023/10/03 15:57:48;;;;;;;15.40;7.50;;;16.20;99.90;;;;;;2070639;28;20651;-71
2023/10/03 15:58:49;;;;;;;8.87;6.30;;;16.10;99.90;;;;;;2070842;28;20644;-70
2023/10/03 15:59:50;;;;;;;12.23;6.43;;;16.00;99.90;;;;;;2070100;28;20253;-70
2023/10/03 16:00:51;;;;;;;8.97;6.13;;;16.00;99.90;;;;;;2069383;28;20714;-70
2023/10/03 16:01:52;;;;;;;6.87;5.90;;;16.00;99.90;;;;;;2071955;28;20872;-70
2023/10/03 16:02:53;;;;;;;9.77;5.40;;;16.00;99.90;;;;;;2072807;28;20474;-70
2023/10/03 16:03:55;;;;;;;6.20;5.60;;;15.90;99.90;;;;;;2079819;28;20321;-70
2023/10/03 16:04:56;;;;;;;7.00;5.43;;;15.90;99.90;;;;;;2071562;28;20226;-70
2023/10/03 16:05:59;;;;;;;7.17;5.60;;;15.90;99.90;;;;;;2059477;28;20488;-70
2023/10/03 16:07:00;;;;;;;6.40;5.00;;;15.80;99.90;;;;;;2071944;28;21222;-70
2023/10/03 16:08:02;;;;;;;5.03;4.53;;;15.80;99.90;;;;;;2070947;28;20462;-70
2023/10/03 16:09:08;;;;;;;6.70;4.20;;;15.80;99.90;;;;;;2072531;28;20454;-71
2023/10/03 16:10:09;;;;;;;5.30;4.00;;;15.70;99.90;;;;;;2076655;28;20473;-70
2023/10/03 16:11:11;;;;;;;6.07;4.17;;;15.60;99.90;;;;;;2081746;28;20449;-70
2023/10/03 16:12:12;;;;;;;4.77;3.97;;;15.60;99.90;;;;;;2071744;28;20978;-70
2023/10/03 16:13:17;;;;;;;4.10;3.47;;;15.60;99.90;;;;;;2079999;28;20450;-70
2023/10/03 16:14:21;;;;;;;7.13;3.80;;;15.60;99.90;;;;;;2077661;28;20201;-71
2023/10/03 16:15:22;;;;;;;3.77;3.17;;;15.50;99.90;;;;;;2077518;28;20472;-70
2023/10/03 16:16:24;;;;;;;2.90;2.43;;;15.40;99.90;;;;;;2078653;28;20481;-70
2023/10/03 16:17:25;;;;;;;3.80;2.80;;;15.40;99.90;;;;;;2066465;28;20472;-71
2023/10/03 16:18:26;;;;;;;3.90;2.97;;;15.30;99.90;;;;;;2063172;28;20467;-68
2023/10/03 16:19:29;;;;;;;3.13;2.80;;;15.30;99.90;;;;;;2070937;28;20601;-69
2023/10/03 16:20:30;;;;;;;3.57;2.60;;;15.30;99.90;;;;;;2071522;28;20297;-70
2023/10/03 16:21:31;;;;;;;3.60;2.80;;;15.20;99.90;;;;;;2079869;28;20470;-70
2023/10/03 16:22:32;;;;;;;5.13;3.00;;;15.20;99.90;;;;;;2079700;28;20466;-70
2023/10/03 16:23:33;;;;;;;4.67;3.07;;;15.10;99.90;;;;;;2070941;28;20237;-71
2023/10/03 16:24:35;;;;;;;6.40;2.97;;;15.10;99.90;;;;;;2071134;28;20494;-71
2023/10/03 16:25:38;;;;;;;10.93;3.40;;;15.10;99.90;;;;;;2070847;28;20237;-71
2023/10/03 16:26:40;;;;;;;11.17;3.00;;;15.10;99.90;;;;;;2072173;28;20566;-73
2023/10/03 16:27:44;;;;;;;10.47;3.03;;;15.10;99.90;;;;;;2080694;28;20474;-70
2023/10/03 16:28:44;;;;;;;8.40;3.20;;;15.00;99.90;;;;;;2080202;28;20531;-70
2023/10/03 16:29:45;;;;;;;12.53;2.37;;;14.90;99.90;;;;;;2080121;28;20478;-70
2023/10/03 16:30:47;;;;;;;9.33;2.40;;;14.80;99.90;;;;;;2081001;28;20228;-71
2023/10/03 16:31:47;;;;;;;8.40;2.30;;;14.70;99.90;;;;;;2081982;28;20500;-71
2023/10/03 16:32:48;;;;;;;5.07;1.80;;;14.60;99.90;;;;;;2079249;28;20485;-70
2023/10/03 16:33:49;;;;;;;2.63;1.57;;;14.50;99.90;;;;;;2071193;28;20252;-70
2023/10/03 16:34:50;;;;;;;8.50;1.60;;;14.30;99.90;;;;;;2078216;28;20734;-70
2023/10/03 16:35:50;;;;;;;2.30;1.63;;;14.20;99.90;;;;;;2079341;28;20482;-70